Time;durP1;ratioP1;P1;durP2;ratioP2;P2;SDS_P1;SDS_P2;PMS_P1;PMS_P2;Temp;Humidity;BMP_temperature;BMP_pressure;BME280_temperature;BME280_humidity;BME280_pressure;Samples;Min_cycle;Max_cycle;Signal;HPM_P1;HPM_P2
2022/10/11 00:02:23;;;;;;;0.20;0.20;;;8.30;99.90;;;;;;6237510;22;20019;-93
2022/10/11 00:04:51;;;;;;;0.38;0.38;;;7.70;99.90;;;;;;6237055;22;20022;-92
2022/10/11 00:07:18;;;;;;;0.30;0.30;;;8.50;99.90;;;;;;6238083;22;20059;-93
2022/10/11 00:09:44;;;;;;;0.20;0.20;;;7.60;99.90;;;;;;6237642;22;20012;-93
2022/10/11 00:12:11;;;;;;;0.40;0.40;;;7.80;99.90;;;;;;6237636;22;20071;-94
2022/10/11 00:14:37;;;;;;;0.20;0.20;;;7.70;99.90;;;;;;6261327;22;20051;-92
2022/10/11 00:17:06;;;;;;;0.20;0.20;;;7.60;99.90;;;;;;6237713;22;20030;-93
2022/10/11 00:19:33;;;;;;;0.20;0.20;;;7.40;99.90;;;;;;6262600;22;20016;-93
2022/10/11 00:21:58;;;;;;;0.22;0.22;;;8.20;99.90;;;;;;6237603;22;20016;-93
2022/10/11 00:24:24;;;;;;;0.28;0.28;;;7.40;99.90;;;;;;6237188;22;20015;-93
2022/10/11 00:26:50;;;;;;;0.20;0.20;;;8.20;99.90;;;;;;6236434;22;20038;-91
2022/10/11 00:29:15;;;;;;;0.30;0.30;;;7.40;99.90;;;;;;6235671;22;20058;-92
2022/10/11 00:31:41;;;;;;;0.20;0.20;;;7.50;99.90;;;;;;6236624;22;20035;-93
2022/10/11 00:34:07;;;;;;;0.30;0.30;;;7.70;99.90;;;;;;6237313;22;20089;-93
2022/10/11 00:36:33;;;;;;;0.20;0.20;;;7.50;99.90;;;;;;6236756;22;20019;-93
2022/10/11 00:38:58;;;;;;;0.30;0.30;;;7.40;99.90;;;;;;6237021;22;20027;-92
2022/10/11 00:41:24;;;;;;;0.20;0.20;;;7.60;99.90;;;;;;6236791;22;20438;-94
2022/10/11 00:44:11;;;;;;;0.10;0.10;;;7.50;99.90;;;;;;6236725;22;20023;-92
2022/10/11 00:46:38;;;;;;;0.28;0.28;;;7.30;99.90;;;;;;6236208;22;20026;-93
2022/10/11 00:49:27;;;;;;;0.40;0.40;;;7.20;99.90;;;;;;6236406;22;20058;-94
2022/10/11 00:52:00;;;;;;;0.30;0.30;;;7.20;99.90;;;;;;6243113;22;20434;-92
2022/10/11 00:54:29;;;;;;;0.28;0.28;;;7.30;99.90;;;;;;6236396;22;20015;-92
2022/10/11 00:57:06;;;;;;;0.30;0.30;;;7.80;99.90;;;;;;6236843;22;20012;-93
2022/10/11 00:59:38;;;;;;;0.30;0.30;;;7.20;99.90;;;;;;6236231;22;20016;-93
2022/10/11 01:02:06;;;;;;;0.30;0.30;;;7.30;99.90;;;;;;6236987;22;20023;-93
2022/10/11 01:04:35;;;;;;;0.25;0.25;;;7.40;99.90;;;;;;6263438;22;20016;-94
2022/10/11 01:07:01;;;;;;;0.30;0.30;;;7.40;99.90;;;;;;6236148;22;20011;-94
2022/10/11 01:09:27;;;;;;;0.10;0.10;;;7.30;99.90;;;;;;6236163;22;20046;-93
2022/10/11 01:11:57;;;;;;;0.20;0.20;;;7.20;99.90;;;;;;6235710;22;20019;-93
2022/10/11 01:14:38;;;;;;;0.30;0.30;;;8.80;99.90;;;;;;6236067;22;20063;-93
2022/10/11 01:17:23;;;;;;;0.40;0.40;;;7.20;99.90;;;;;;6235998;22;20385;-93
2022/10/11 01:20:08;;;;;;;0.30;0.30;;;7.10;99.90;;;;;;6235844;22;20087;-93
2022/10/11 01:23:22;;;;;;;0.40;0.40;;;7.00;99.90;;;;;;6236557;22;20016;-93
2022/10/11 01:25:53;;;;;;;0.30;0.30;;;6.90;99.90;;;;;;6235996;22;20069;-92
2022/10/11 01:28:43;;;;;;;0.30;0.30;;;6.60;99.90;;;;;;6235949;22;20008;-92
2022/10/11 01:31:37;;;;;;;0.38;0.38;;;6.80;99.90;;;;;;6235918;22;20003;-92
2022/10/11 01:34:25;;;;;;;0.20;0.20;;;6.50;99.90;;;;;;6235560;22;20015;-92
2022/10/11 01:37:16;;;;;;;0.40;0.40;;;6.50;99.90;;;;;;6233959;22;20064;-92
2022/10/11 01:39:50;;;;;;;0.30;0.30;;;6.20;99.90;;;;;;6235325;22;20011;-92
2022/10/11 01:42:18;;;;;;;0.40;0.40;;;6.30;99.90;;;;;;6236640;22;20023;-93
2022/10/11 01:44:47;;;;;;;0.20;0.20;;;6.10;99.90;;;;;;6235278;22;20020;-91
2022/10/11 01:47:21;;;;;;;0.35;0.35;;;6.10;99.90;;;;;;6235379;22;20067;-92
2022/10/11 01:49:58;;;;;;;0.28;0.28;;;6.40;99.90;;;;;;6235926;22;20016;-92
2022/10/11 01:52:32;;;;;;;0.30;0.30;;;6.30;99.90;;;;;;6236262;22;20012;-91
2022/10/11 01:55:13;;;;;;;0.30;0.30;;;6.50;99.90;;;;;;6238099;22;20027;-91
2022/10/11 01:58:01;;;;;;;0.20;0.20;;;6.20;99.90;;;;;;6238529;22;20026;-92
2022/10/11 02:01:00;;;;;;;0.30;0.30;;;6.30;99.90;;;;;;6238438;22;20067;-93
2022/10/11 02:04:15;;;;;;;0.20;0.20;;;6.30;99.90;;;;;;6239381;22;20015;-93
2022/10/11 02:07:07;;;;;;;0.40;0.40;;;6.30;99.90;;;;;;6132871;22;20025;-93
2022/10/11 02:09:41;;;;;;;0.30;0.30;;;6.10;99.90;;;;;;6238104;22;20055;-92
2022/10/11 02:12:11;;;;;;;0.40;0.40;;;6.70;99.90;;;;;;6239013;22;20022;-92
2022/10/11 02:14:49;;;;;;;0.38;0.38;;;5.90;99.90;;;;;;6238807;22;20095;-92
2022/10/11 02:17:20;;;;;;;0.32;0.32;;;6.00;99.90;;;;;;6239427;22;20012;-92
2022/10/11 02:19:50;;;;;;;0.38;0.38;;;5.90;99.90;;;;;;6238393;22;20421;-92
2022/10/11 02:22:28;;;;;;;0.40;0.40;;;6.40;99.90;;;;;;6238518;22;20023;-93
2022/10/11 02:24:58;;;;;;;0.40;0.40;;;5.90;99.90;;;;;;6240290;22;20000;-92
2022/10/11 02:27:27;;;;;;;0.30;0.30;;;;;;;;;;6238574;22;20026;-92
2022/10/11 02:29:54;;;;;;;0.30;0.30;;;;;;;;;;6237833;22;20081;-92
2022/10/11 02:32:21;;;;;;;0.38;0.38;;;;;;;;;;6238209;22;20016;-92
2022/10/11 02:34:50;;;;;;;0.30;0.30;;;;;;;;;;6238350;22;20027;-93
2022/10/11 02:37:22;;;;;;;0.40;0.40;;;;;;;;;;6238570;22;20219;-92
2022/10/11 02:39:54;;;;;;;0.40;0.40;;;;;;;;;;6238166;22;20274;-92
2022/10/11 02:42:25;;;;;;;0.30;0.30;;;;;;;;;;6238437;22;20015;-92
2022/10/11 02:44:58;;;;;;;0.40;0.40;;;;;;;;;;6239279;22;20052;-92
2022/10/11 02:47:24;;;;;;;0.40;0.40;;;;;;;;;;6238749;22;20015;-93
2022/10/11 02:49:50;;;;;;;0.40;0.40;;;;;;;;;;6239199;22;20213;-92
2022/10/11 02:52:16;;;;;;;0.40;0.40;;;;;;;;;;6238093;22;20327;-90
2022/10/11 02:54:43;;;;;;;0.40;0.40;;;;;;;;;;6238434;22;20094;-91
2022/10/11 02:57:09;;;;;;;0.30;0.30;;;;;;;;;;6238472;22;20016;-92
2022/10/11 02:59:35;;;;;;;0.30;0.30;;;;;;;;;;6238281;22;20043;-92
2022/10/11 03:02:01;;;;;;;0.30;0.30;;;;;;;;;;6239389;22;20042;-92
2022/10/11 03:04:27;;;;;;;0.20;0.20;;;;;;;;;;6239668;22;20019;-93
2022/10/11 03:06:53;;;;;;;0.40;0.40;;;;;;;;;;6239270;22;20043;-93
2022/10/11 03:09:19;;;;;;;0.25;0.25;;;;;;;;;;6237576;22;20015;-92
2022/10/11 03:11:45;;;;;;;0.38;0.38;;;;;;;;;;6237856;22;20015;-93
2022/10/11 03:14:11;;;;;;;0.20;0.20;;;;;;;;;;6238494;22;20468;-92
2022/10/11 03:16:37;;;;;;;0.30;0.30;;;;;;;;;;6238003;22;20465;-93
2022/10/11 03:19:03;;;;;;;0.30;0.30;;;;;;;;;;6238559;22;20019;-93
2022/10/11 03:21:29;;;;;;;0.40;0.40;;;;;;;;;;6238257;22;20043;-94
2022/10/11 03:23:55;;;;;;;0.50;0.50;;;;;;;;;;6239111;22;20019;-93
2022/10/11 03:26:21;;;;;;;0.30;0.30;;;;;;;;;;6238707;22;20012;-93
2022/10/11 03:28:48;;;;;;;0.40;0.40;;;;;;;;;;6237985;22;20068;-90
2022/10/11 03:31:14;;;;;;;0.30;0.30;;;;;;;;;;6262566;22;20468;-92
2022/10/11 03:33:40;;;;;;;0.40;0.40;;;;;;;;;;6237547;22;20019;-93
2022/10/11 03:36:06;;;;;;;0.40;0.40;;;;;;;;;;6236966;22;20019;-93
2022/10/11 03:38:32;;;;;;;0.40;0.40;;;;;;;;;;6238086;22;20020;-93
2022/10/11 03:40:58;;;;;;;0.40;0.40;;;;;;;;;;6238288;22;20026;-92
2022/10/11 03:43:25;;;;;;;0.30;0.30;;;;;;;;;;6238134;22;20042;-92
2022/10/11 03:45:54;;;;;;;0.30;0.30;;;;;;;;;;6264390;22;20015;-92
2022/10/11 03:48:20;;;;;;;0.40;0.40;;;;;;;;;;6238413;22;20041;-92
2022/10/11 03:50:46;;;;;;;0.32;0.32;;;;;;;;;;6238304;22;20019;-93
2022/10/11 03:53:12;;;;;;;0.30;0.30;;;;;;;;;;6238471;22;20015;-93
2022/10/11 03:55:39;;;;;;;0.30;0.30;;;;;;;;;;6238521;22;20043;-93
2022/10/11 03:58:05;;;;;;;0.35;0.35;;;;;;;;;;6237672;22;20094;-92
2022/10/11 04:00:31;;;;;;;0.40;0.40;;;;;;;;;;6237087;22;20027;-92
2022/10/11 04:02:58;;;;;;;0.40;0.40;;;;;;;;;;6262034;22;20342;-93
2022/10/11 04:05:24;;;;;;;0.38;0.38;;;;;;;;;;6237926;22;20016;-93
2022/10/11 04:07:50;;;;;;;0.30;0.30;;;;;;;;;;6237652;22;20024;-93
2022/10/11 04:10:17;;;;;;;0.30;0.30;;;;;;;;;;6236935;22;20063;-91
2022/10/11 04:12:43;;;;;;;0.35;0.35;;;;;;;;;;6237809;22;20023;-91
2022/10/11 04:15:12;;;;;;;0.30;0.30;;;;;;;;;;6237154;22;20042;-92
2022/10/11 04:17:38;;;;;;;0.30;0.30;;;;;;;;;;6237237;22;20024;-93
2022/10/11 04:20:05;;;;;;;0.30;0.30;;;;;;;;;;6238116;22;20043;-93
2022/10/11 04:22:32;;;;;;;0.40;0.40;;;;;;;;;;6238843;22;20047;-94
2022/10/11 04:24:58;;;;;;;0.40;0.40;;;;;;;;;;6238210;22;20095;-93
2022/10/11 04:27:28;;;;;;;0.40;0.40;;;;;;;;;;6239346;22;20361;-92
2022/10/11 04:29:54;;;;;;;0.40;0.40;;;;;;;;;;6238499;22;20027;-89
2022/10/11 04:32:20;;;;;;;0.40;0.40;;;;;;;;;;6239363;22;20015;-90
2022/10/11 04:34:46;;;;;;;0.43;0.43;;;;;;;;;;6238435;22;20042;-89
2022/10/11 04:37:13;;;;;;;0.32;0.32;;;;;;;;;;6239318;22;20019;-90
2022/10/11 04:39:39;;;;;;;0.35;0.35;;;;;;;;;;6239494;22;20016;-90
2022/10/11 04:42:05;;;;;;;0.30;0.30;;;;;;;;;;6239826;22;20046;-90
2022/10/11 04:44:31;;;;;;;0.40;0.40;;;;;;;;;;6238735;22;20023;-90
2022/10/11 04:46:57;;;;;;;0.30;0.30;;;;;;;;;;6238041;22;20015;-89
2022/10/11 04:49:23;;;;;;;0.30;0.30;;;;;;;;;;6239116;22;20401;-89
2022/10/11 04:51:49;;;;;;;0.40;0.40;;;;;;;;;;6238922;22;20015;-89
2022/10/11 04:54:15;;;;;;;0.40;0.40;;;;;;;;;;6238862;22;20016;-90
2022/10/11 04:56:41;;;;;;;0.40;0.40;;;;;;;;;;6238436;22;20047;-90
2022/10/11 04:59:08;;;;;;;0.40;0.40;;;;;;;;;;6238992;22;20016;-89
2022/10/11 05:01:34;;;;;;;0.50;0.50;;;;;;;;;;6264551;22;20015;-90
2022/10/11 05:04:00;;;;;;;0.35;0.35;;;;;;;;;;6239110;22;20026;-90
2022/10/11 05:06:26;;;;;;;0.40;0.40;;;;;;;;;;6239606;22;20064;-90
2022/10/11 05:08:52;;;;;;;0.30;0.30;;;;;;;;;;6238822;22;20042;-91
2022/10/11 05:11:18;;;;;;;0.40;0.40;;;;;;;;;;6239085;22;20016;-90
2022/10/11 05:13:45;;;;;;;0.30;0.30;;;;;;;;;;6238004;22;20387;-89
2022/10/11 05:16:11;;;;;;;0.30;0.30;;;;;;;;;;6238437;22;20031;-90
2022/10/11 05:18:37;;;;;;;0.40;0.40;;;;;;;;;;6238826;22;20020;-90
2022/10/11 05:21:05;;;;;;;0.40;0.40;;;;;;;;;;6238131;22;20020;-90
2022/10/11 05:23:32;;;;;;;0.40;0.40;;;;;;;;;;6238199;22;20470;-90
2022/10/11 05:25:59;;;;;;;0.40;0.40;;;;;;;;;;6238367;22;20023;-89
2022/10/11 05:28:26;;;;;;;0.38;0.38;;;;;;;;;;6263321;22;20019;-89
2022/10/11 05:30:52;;;;;;;0.40;0.40;;;;;;;;;;6239323;22;20046;-88
2022/10/11 05:33:18;;;;;;;0.40;0.40;;;;;;;;;;6238567;22;20022;-90
2022/10/11 05:35:44;;;;;;;0.40;0.40;;;;;;;;;;6238605;22;20472;-91
2022/10/11 05:38:10;;;;;;;0.30;0.30;;;;;;;;;;6239582;22;20071;-91
2022/10/11 05:40:37;;;;;;;0.40;0.40;;;;;;;;;;6240119;22;20024;-90
2022/10/11 05:43:04;;;;;;;0.30;0.30;;;;;;;;;;6239733;22;20067;-91
2022/10/11 05:45:31;;;;;;;0.40;0.40;;;;;;;;;;6240373;22;20019;-90
2022/10/11 05:47:58;;;;;;;0.40;0.40;;;;;;;;;;6240249;22;20046;-90
2022/10/11 05:50:24;;;;;;;0.30;0.30;;;;;;;;;;6240338;22;20373;-90
2022/10/11 05:52:50;;;;;;;0.40;0.40;;;;;;;;;;6239819;22;20016;-90
2022/10/11 05:55:16;;;;;;;0.40;0.40;;;;;;;;;;6240419;22;20023;-90
2022/10/11 05:57:43;;;;;;;0.30;0.30;;;;;;;;;;6239879;22;20022;-90
2022/10/11 06:00:09;;;;;;;0.40;0.40;;;;;;;;;;6239567;22;20020;-90
2022/10/11 06:02:36;;;;;;;0.40;0.40;;;;;;;;;;6265101;22;20027;-90
2022/10/11 06:05:02;;;;;;;0.35;0.35;;;;;;;;;;6238800;22;20012;-89
2022/10/11 06:07:28;;;;;;;0.40;0.40;;;;;;;;;;6235036;22;20079;-90
2022/10/11 06:09:54;;;;;;;0.38;0.38;;;;;;;;;;6235950;22;20034;-89
2022/10/11 06:12:20;;;;;;;0.40;0.40;;;;;;;;;;6233896;22;20107;-90
2022/10/11 06:14:46;;;;;;;0.50;0.50;;;;;;;;;;6236001;22;20055;-89
2022/10/11 06:17:13;;;;;;;0.40;0.40;;;;;;;;;;6236287;22;20020;-89
2022/10/11 06:19:39;;;;;;;0.40;0.40;;;;;;;;;;6233833;22;20023;-88
2022/10/11 06:22:05;;;;;;;0.30;0.30;;;;;;;;;;6237286;22;20051;-90
2022/10/11 06:24:31;;;;;;;0.30;0.30;;;;;;;;;;6237183;22;20027;-89
2022/10/11 06:26:57;;;;;;;0.40;0.40;;;;;;;;;;6237873;22;20026;-90
2022/10/11 06:29:23;;;;;;;0.40;0.40;;;;;;;;;;6238153;22;20019;-91
2022/10/11 06:31:49;;;;;;;0.30;0.30;;;;;;;;;;6238452;22;20012;-90
2022/10/11 06:34:15;;;;;;;0.40;0.40;;;;;;;;;;6237126;22;20110;-91
2022/10/11 06:36:41;;;;;;;0.40;0.40;;;;;;;;;;6264652;22;20122;-91
2022/10/11 06:39:07;;;;;;;0.40;0.40;;;;;;;;;;6237134;22;20102;-91
2022/10/11 06:41:37;;;;;;;0.30;0.30;;;;;;;;;;6264461;22;20023;-89
2022/10/11 06:44:03;;;;;;;0.40;0.40;;;;;;;;;;6238910;22;20016;-90
2022/10/11 06:46:32;;;;;;;0.50;0.50;;;;;;;;;;6239569;22;20007;-89
2022/10/11 06:48:58;;;;;;;0.40;0.40;;;;;;;;;;6239110;22;20448;-91
2022/10/11 06:51:24;;;;;;;0.30;0.30;;;;;;;;;;6238965;22;20067;-89
2022/10/11 06:53:51;;;;;;;0.40;0.40;;;;;;;;;;6238740;22;20016;-90
2022/10/11 06:56:18;;;;;;;0.40;0.40;;;;;;;;;;6237819;22;20019;-89
2022/10/11 06:58:45;;;;;;;0.40;0.40;;;;;;;;;;6238730;22;20026;-89
2022/10/11 07:01:15;;;;;;;0.30;0.30;;;;;;;;;;6238188;22;20777;-89
2022/10/11 07:03:42;;;;;;;0.45;0.45;;;;;;;;;;6239273;22;20073;-91
2022/10/11 07:06:10;;;;;;;0.40;0.40;;;;;;;;;;6239709;22;20092;-91
2022/10/11 07:08:37;;;;;;;0.30;0.30;;;;;;;;;;6238991;22;20016;-90
2022/10/11 07:11:05;;;;;;;0.40;0.40;;;;;;;;;;6239085;22;20016;-90
2022/10/11 07:13:32;;;;;;;0.30;0.30;;;;;;;;;;6239947;22;20102;-89
2022/10/11 07:16:02;;;;;;;0.40;0.40;;;;;;;;;;6238620;22;20030;-91
2022/10/11 07:18:28;;;;;;;0.40;0.40;;;;;;;;;;6239884;22;20102;-91
2022/10/11 07:20:54;;;;;;;0.40;0.40;;;;;;;;;;6239288;22;20027;-92
2022/10/11 07:23:20;;;;;;;0.40;0.40;;;;;;;;;;6239760;22;20016;-92
2022/10/11 07:25:47;;;;;;;0.35;0.35;;;;;;;;;;6237476;22;20020;-90
2022/10/11 07:28:13;;;;;;;0.40;0.40;;;;;;;;;;6237135;22;20015;-89
2022/10/11 07:30:42;;;;;;;0.30;0.30;;;;;;;;;;6238457;22;20016;-90
2022/10/11 07:33:09;;;;;;;0.35;0.35;;;;;;;;;;6237512;22;20042;-88
2022/10/11 07:35:35;;;;;;;0.30;0.30;;;;;;;;;;6238252;22;20015;-88
2022/10/11 07:38:01;;;;;;;0.30;0.30;;;;;;;;;;6237637;22;20034;-90
2022/10/11 07:40:27;;;;;;;0.30;0.30;;;;;;;;;;6238263;22;20020;-90
2022/10/11 07:42:55;;;;;;;0.30;0.30;;;;;;;;;;6238171;22;20023;-91
2022/10/11 07:45:21;;;;;;;0.30;0.30;;;;;;;;;;6238806;22;20050;-90
2022/10/11 07:47:48;;;;;;;0.40;0.40;;;;;;;;;;6239922;22;20082;-91
2022/10/11 07:50:14;;;;;;;0.32;0.32;;;;;;;;;;6238839;22;20384;-90
2022/10/11 07:52:40;;;;;;;0.40;0.40;;;;;;;;;;6238755;22;20011;-89
2022/10/11 07:55:06;;;;;;;0.30;0.30;;;;;;;;;;6238452;22;20020;-88
2022/10/11 07:57:32;;;;;;;0.40;0.40;;;;;;;;;;6237551;22;20024;-87
2022/10/11 07:59:58;;;;;;;0.40;0.40;;;;;;;;;;6238398;22;20341;-87
2022/10/11 08:02:24;;;;;;;0.43;0.43;;;;;;;;;;6237948;22;20027;-88
2022/10/11 08:04:50;;;;;;;0.20;0.20;;;;;;;;;;6238438;22;20018;-92
2022/10/11 08:07:16;;;;;;;0.40;0.40;;;;;;;;;;6240214;22;20027;-92
2022/10/11 08:09:43;;;;;;;0.38;0.38;;;;;;;;;;6239542;22;20026;-91
2022/10/11 08:12:09;;;;;;;0.20;0.20;;;;;;;;;;6238737;22;20016;-86
2022/10/11 08:14:35;;;;;;;0.40;0.40;;;;;;;;;;6237227;22;20023;-87
2022/10/11 08:17:01;;;;;;;0.35;0.35;;;;;;;;;;6237706;22;20016;-89
2022/10/11 08:19:27;;;;;;;0.20;0.20;;;;;;;;;;6237468;22;20035;-90
2022/10/11 08:21:53;;;;;;;0.30;0.30;;;;;;;;;;6238373;22;20046;-94
2022/10/11 08:24:19;;;;;;;0.40;0.40;;;;;;;;;;6239530;22;20018;-89
2022/10/11 08:26:46;;;;;;;0.30;0.30;;;;;;;;;;6236593;22;20441;-90
2022/10/11 08:29:13;;;;;;;0.30;0.30;;;;;;;;;;6234953;22;20489;-89
2022/10/11 08:31:44;;;;;;;0.40;0.40;;;;;;;;;;6237986;22;20051;-90
2022/10/11 08:34:11;;;;;;;0.40;0.40;;;;;;;;;;6262547;22;20046;-91
2022/10/11 08:36:38;;;;;;;0.30;0.30;;;;;;;;;;6238265;22;20098;-91
2022/10/11 08:39:07;;;;;;;0.30;0.30;;;;;;;;;;6236955;22;20020;-90
2022/10/11 08:41:42;;;;;;;0.30;0.30;;;;;;;;;;6238986;22;20034;-89
2022/10/11 08:49:29;;;;;;;0.30;0.30;;;;;;;;;;6229838;22;20055;-92
2022/10/11 08:52:01;;;;;;;0.20;0.20;;;;;;;;;;6224710;23;20464;-90
2022/10/11 08:54:43;;;;;;;0.30;0.30;;;;;;;;;;6201079;23;20403;-91
2022/10/11 08:57:13;;;;;;;0.20;0.20;;;;;;;;;;6200400;23;20104;-91
2022/10/11 08:59:44;;;;;;;0.20;0.20;;;;;;;;;;6201176;23;20068;-92
2022/10/11 09:02:21;;;;;;;0.30;0.30;;;;;;;;;;6201504;23;20020;-94
2022/10/11 09:04:49;;;;;;;0.30;0.30;;;;;;;;;;6199939;23;20174;-92
2022/10/11 09:07:17;;;;;;;0.30;0.30;;;;;;;;;;6211544;23;20043;-96
2022/10/11 09:09:55;;;;;;;0.20;0.20;;;;;;;;;;6202998;23;20076;-89
2022/10/11 09:12:30;;;;;;;0.10;0.10;;;;;;;;;;6198208;23;20012;-90
2022/10/11 09:14:59;;;;;;;0.30;0.30;;;;;;;;;;6198740;23;20009;-89
2022/10/11 09:17:32;;;;;;;0.30;0.30;;;;;;;;;;6199539;23;20025;-88
2022/10/11 09:20:16;;;;;;;0.30;0.30;;;;;;;;;;6198547;23;20327;-88
2022/10/11 09:22:48;;;;;;;0.30;0.30;;;;;;;;;;6198684;23;20020;-87
2022/10/11 09:25:29;;;;;;;0.32;0.32;;;;;;;;;;6197916;23;20020;-87
2022/10/11 09:27:55;;;;;;;0.30;0.30;;;;;;;;;;6199587;23;20024;-90
2022/10/11 09:30:21;;;;;;;0.30;0.30;;;;;;;;;;6198736;23;20012;-88
2022/10/11 09:33:17;;;;;;;0.30;0.30;;;;;;;;;;6205785;23;20016;-88
2022/10/11 09:43:31;;;;;;;0.20;0.20;;;;;;;;;;6280420;22;20054;-89
2022/10/11 09:45:57;;;;;;;0.30;0.30;;;;;;;;;;6231719;22;20095;-88
2022/10/11 09:48:25;;;;;;;0.30;0.30;;;;;;;;;;6232267;22;20015;-91
2022/10/11 09:50:56;;;;;;;0.17;0.17;;;;;;;;;;6234521;22;20627;-91
2022/10/11 09:58:37;;;;;;;0.20;0.20;;;;;;;;;;6242442;22;20070;-94
2022/10/11 10:01:25;;;;;;;0.20;0.20;;;;;;;;;;6262694;22;20424;-95
2022/10/11 10:04:05;;;;;;;0.20;0.20;;;;;;;;;;6263773;22;20030;-94
2022/10/11 11:14:50;;;;;;;0.30;0.30;;;;;;;;;;6269581;22;20020;-93
2022/10/11 11:17:25;;;;;;;0.30;0.30;;;;;;;;;;6239964;23;20031;-94
2022/10/11 11:20:10;;;;;;;0.30;0.30;;;;;;;;;;6209320;22;20020;-93
2022/10/11 11:22:59;;;;;;;0.20;0.20;;;;;;;;;;6206150;23;20016;-94
2022/10/11 11:25:26;;;;;;;0.22;0.22;;;;;;;;;;6206353;23;20039;-92
2022/10/11 11:27:55;;;;;;;0.20;0.20;;;;;;;;;;6208663;23;20031;-89
2022/10/11 11:30:24;;;;;;;0.20;0.20;;;;;;;;;;6206806;23;20111;-90
2022/10/11 11:32:56;;;;;;;0.20;0.20;;;;;;;;;;6211645;23;20027;-92
2022/10/11 11:35:28;;;;;;;0.20;0.20;;;;;;;;;;6207972;23;20063;-92
2022/10/11 12:05:34;;;;;;;0.20;0.20;;;;;;;;;;6300032;22;20084;-90
2022/10/11 12:08:01;;;;;;;0.20;0.20;;;;;;;;;;6261252;22;20015;-94
2022/10/11 12:10:46;;;;;;;0.10;0.10;;;;;;;;;;6263377;22;20011;-93
2022/10/11 12:13:20;;;;;;;0.20;0.20;;;;;;;;;;6262627;22;20023;-95
2022/10/11 13:20:41;;;;;;;0.10;0.10;;;;;;;;;;6276067;22;20163;-90
2022/10/11 13:23:24;;;;;;;0.20;0.20;;;;;;;;;;6249670;22;20295;-90
2022/10/11 13:25:51;;;;;;;0.20;0.20;;;;;;;;;;6248493;22;20026;-90
2022/10/11 13:28:17;;;;;;;0.10;0.10;;;;;;;;;;6247857;22;20011;-89
2022/10/11 13:51:36;;;;;;;0.10;0.10;;;;;;;;;;6237927;22;20055;-90
2022/10/11 13:54:07;;;;;;;0.10;0.10;;;;;;;;;;6203989;23;20051;-91
2022/10/11 13:56:42;;;;;;;0.13;0.13;;;;;;;;;;6229502;23;20017;-91
2022/10/11 13:59:17;;;;;;;0.10;0.10;;;;;;;;;;6204874;23;20446;-93
2022/10/11 14:01:43;;;;;;;;;;;;;;;;;;6202699;23;20013;-88
2022/10/11 14:04:10;;;;;;;0.10;0.10;;;;;;;;;;6202574;23;19962;-86
2022/10/11 14:06:42;;;;;;;0.13;0.13;;;;;;;;;;6199152;23;20332;-88
2022/10/11 14:09:18;;;;;;;0.15;0.15;;;;;;;;;;6200572;23;20055;-88
2022/10/11 14:11:44;;;;;;;0.10;0.10;;;;;;;;;;6200560;23;20020;-88
2022/10/11 14:14:28;;;;;;;0.20;0.20;;;;;;;;;;6201382;23;20017;-87
2022/10/11 14:16:59;;;;;;;0.20;0.20;;;;;;;;;;6205675;23;20032;-91
2022/10/11 14:23:29;;;;;;;;;;;;;;;;;;;;;
2022/10/11 14:44:16;;;;;;;0.17;0.17;;;;;;;;;;6264235;22;20031;-91
2022/10/11 14:46:42;;;;;;;0.20;0.20;;;;;;;;;;6238564;23;20031;-92
2022/10/11 14:49:25;;;;;;;0.10;0.10;;;;;;;;;;6237972;23;20051;-92
2022/10/11 14:51:52;;;;;;;0.28;0.28;;;;;;;;;;6238564;23;20042;-92
2022/10/11 14:54:22;;;;;;;0.20;0.20;;;;;;;;;;6238672;23;20042;-92
2022/10/11 14:56:49;;;;;;;0.10;0.10;;;;;;;;;;6238268;23;20020;-92
2022/10/11 14:59:18;;;;;;;0.10;0.10;;;;;;;;;;6238104;23;20016;-92
2022/10/11 15:12:12;;;;;;;0.10;0.10;;;;;;;;;;6263127;22;20035;-91
2022/10/11 15:14:38;;;;;;;0.20;0.20;;;;;;;;;;6236577;23;20020;-92
2022/10/11 15:17:04;;;;;;;0.10;0.10;;;;;;;;;;6236257;23;20064;-93
2022/10/11 15:19:30;;;;;;;0.10;0.10;;;;;;;;;;6211374;23;20020;-93
2022/10/11 15:21:57;;;;;;;0.10;0.10;;;;;;;;;;6236618;23;20027;-92
2022/10/11 15:24:23;;;;;;;0.20;0.20;;;;;;;;;;6237136;23;20449;-93
2022/10/11 15:26:49;;;;;;;0.20;0.20;;;;;;;;;;6236038;23;20453;-92
2022/10/11 15:32:22;;;;;;;0.13;0.13;;;;;;;;;;6261823;23;20024;-92
2022/10/11 15:34:49;;;;;;;0.30;0.30;;;;;;;;;;6237780;23;20103;-92
2022/10/11 15:37:15;;;;;;;0.10;0.10;;;;;;;;;;6236165;23;20027;-92
2022/10/11 15:39:41;;;;;;;0.10;0.10;;;;;;;;;;6237210;23;20082;-93
2022/10/11 15:42:23;;;;;;;0.20;0.20;;;;;;;;;;6262554;23;20067;-92
2022/10/11 15:44:49;;;;;;;0.10;0.10;;;;;;;;;;6235945;23;20088;-92
2022/10/11 15:47:15;;;;;;;0.10;0.10;;;;;;;;;;6237366;23;20065;-92
2022/10/11 15:49:42;;;;;;;0.20;0.20;;;;;;;;;;6212009;23;20438;-91
2022/10/11 15:52:08;;;;;;;0.20;0.20;;;;;;;;;;6237127;23;20020;-92
2022/10/11 15:54:35;;;;;;;0.10;0.10;;;;;;;;;;6236438;23;20016;-92
2022/10/11 15:57:01;;;;;;;0.13;0.13;;;;;;;;;;6236230;23;20019;-90
2022/10/11 15:59:27;;;;;;;0.20;0.20;;;;;;;;;;6236495;23;20019;-92
2022/10/11 16:01:53;;;;;;;0.20;0.20;;;;;;;;;;6236400;23;20043;-92
2022/10/11 16:04:20;;;;;;;0.10;0.10;;;;;;;;;;6236242;23;20044;-91
2022/10/11 16:06:46;;;;;;;0.10;0.10;;;;;;;;;;6235742;23;20077;-92
2022/10/11 16:09:16;;;;;;;0.10;0.10;;;;;;;;;;6236825;23;20012;-91
2022/10/11 16:14:50;;;;;;;0.20;0.20;;;;;;;;;;6229494;22;20047;-91
2022/10/11 16:17:16;;;;;;;0.10;0.10;;;;;;;;;;6211766;23;20015;-91
2022/10/11 16:19:42;;;;;;;0.20;0.20;;;;;;;;;;6236676;23;20023;-91
2022/10/11 16:22:08;;;;;;;0.20;0.20;;;;;;;;;;6235305;23;20020;-91
2022/10/11 16:24:35;;;;;;;0.20;0.20;;;;;;;;;;6234890;23;20008;-92
2022/10/11 16:27:06;;;;;;;0.10;0.10;;;;;;;;;;6233999;23;20022;-91
2022/10/11 16:29:32;;;;;;;0.20;0.20;;;;;;;;;;6234039;23;20454;-91
2022/10/11 16:31:58;;;;;;;0.25;0.25;;;;;;;;;;6233662;23;20016;-90
2022/10/11 16:34:24;;;;;;;0.20;0.20;;;;;;;;;;6233528;23;20092;-92
2022/10/11 16:36:51;;;;;;;0.20;0.20;;;;;;;;;;6258373;23;20020;-92
2022/10/11 16:39:18;;;;;;;0.20;0.20;;;;;;;;;;6233766;23;20031;-92
2022/10/11 16:41:45;;;;;;;0.20;0.20;;;;;;;;;;6234317;23;20016;-92
2022/10/11 16:44:12;;;;;;;0.17;0.17;;;;;;;;;;6234150;23;20020;-91
2022/10/11 16:46:38;;;;;;;0.10;0.10;;;;;;;;;;6233804;23;20408;-92
2022/10/11 16:49:05;;;;;;;0.30;0.30;;;;;;;;;;6234074;23;20023;-92
2022/10/11 16:51:31;;;;;;;0.13;0.13;;;;;;;;;;6234298;23;20394;-92
2022/10/11 16:53:57;;;;;;;0.20;0.20;;;;;;;;;;6233529;23;20015;-93
2022/10/11 16:56:23;;;;;;;0.20;0.20;;;;;;;;;;6235263;23;20088;-92
2022/10/11 16:58:55;;;;;;;0.20;0.20;;;;;;;;;;6235158;23;20031;-96
2022/10/11 17:01:24;;;;;;;0.10;0.10;;;;;;;;;;6235164;23;20012;-92
2022/10/11 20:55:40;;;;;;;0.28;0.28;;;;;;;;;;6301111;22;20085;-92
2022/10/11 20:58:07;;;;;;;0.30;0.30;;;;;;;;;;6264577;22;20022;-92
2022/10/11 21:00:33;;;;;;;0.40;0.40;;;;;;;;;;6268657;22;20038;-93
2022/10/11 22:20:37;;;;;;;0.40;0.40;;;;;;;;;;6281210;22;20477;-90
2022/10/11 22:23:03;;;;;;;0.40;0.40;;;;;;;;;;6230199;23;20021;-89
2022/10/11 22:25:30;;;;;;;0.30;0.30;;;;;;;;;;6230949;23;20026;-91
2022/10/11 22:27:56;;;;;;;0.25;0.25;;;;;;;;;;6236515;23;20042;-91
2022/10/11 22:30:22;;;;;;;0.30;0.30;;;;;;;;;;6231748;23;20051;-91
2022/10/11 22:32:49;;;;;;;0.32;0.32;;;;;;;;;;6231393;23;20008;-92
2022/10/11 22:35:20;;;;;;;0.40;0.40;;;;;;;;;;6233603;23;20000;-91
2022/10/11 22:37:46;;;;;;;0.40;0.40;;;;;;;;;;6231200;23;20027;-92
2022/10/11 22:40:12;;;;;;;0.40;0.40;;;;;;;;;;6231149;23;20020;-92
2022/10/11 22:45:42;;;;;;;0.40;0.40;;;;;;;;;;6238364;22;20016;-92
2022/10/11 22:48:09;;;;;;;0.40;0.40;;;;;;;;;;6264211;22;20023;-92
2022/10/11 22:50:35;;;;;;;0.28;0.28;;;;;;;;;;6261517;22;20019;-92
2022/10/11 22:53:01;;;;;;;0.32;0.32;;;;;;;;;;6262145;22;20027;-93
2022/10/11 22:55:28;;;;;;;0.38;0.38;;;;;;;;;;6261455;22;20058;-92
2022/10/11 22:57:54;;;;;;;0.40;0.40;;;;;;;;;;6211034;22;20015;-92
2022/10/11 23:00:20;;;;;;;0.40;0.40;;;;;;;;;;6261106;22;20019;-92
2022/10/11 23:02:46;;;;;;;0.35;0.35;;;;;;;;;;6272298;22;20024;-92
2022/10/11 23:05:13;;;;;;;0.40;0.40;;;;;;;;;;6264110;22;20020;-92
2022/10/11 23:07:39;;;;;;;0.40;0.40;;;;;;;;;;6261678;22;20099;-92
2022/10/11 23:10:05;;;;;;;0.35;0.35;;;;;;;;;;6261589;22;20016;-92
2022/10/11 23:25:30;;;;;;;0.30;0.30;;;;;;;;;;6257606;22;20031;-91
2022/10/11 23:27:59;;;;;;;0.30;0.30;;;;;;;;;;6230474;23;20027;-90
2022/10/11 23:30:26;;;;;;;0.30;0.30;;;;;;;;;;6230507;23;20393;-91
2022/10/11 23:32:52;;;;;;;0.30;0.30;;;;;;;;;;6230133;23;20098;-90
2022/10/11 23:35:18;;;;;;;0.30;0.30;;;;;;;;;;6230615;23;20015;-91
2022/10/11 23:37:45;;;;;;;0.30;0.30;;;;;;;;;;6229866;23;20055;-91
2022/10/11 23:40:11;;;;;;;0.40;0.40;;;;;;;;;;6230628;23;20346;-92
2022/10/11 23:45:50;;;;;;;0.30;0.30;;;;;;;;;;6256628;23;20058;-91
2022/10/11 23:48:16;;;;;;;0.40;0.40;;;;;;;;;;6228872;23;20138;-92
2022/10/11 23:50:42;;;;;;;0.40;0.40;;;;;;;;;;6232913;23;20334;-91
2022/10/11 23:53:12;;;;;;;0.40;0.40;;;;;;;;;;6232309;23;20012;-91
2022/10/11 23:55:38;;;;;;;0.40;0.40;;;;;;;;;;6265563;22;20042;-91
